Time;durP1;ratioP1;P1;durP2;ratioP2;P2;SDS_P1;SDS_P2;PMS_P1;PMS_P2;Temp;Humidity;BMP_temperature;BMP_pressure;BME280_temperature;BME280_humidity;BME280_pressure;Samples;Min_cycle;Max_cycle;Signal;HPM_P1;HPM_P2
2022/08/30 00:01:01;;;;;;;;;;;16.80;99.90;;;;;;4997955;28;19921;-66
2022/08/30 00:01:58;;;;;;;;;;;16.80;99.90;;;;;;5014593;28;19929;-66
2022/08/30 00:04:25;;;;;;;;;;;16.80;99.90;;;;;;5017590;28;19922;-66
2022/08/30 00:06:52;;;;;;;;;;;16.70;99.90;;;;;;5014209;28;19922;-66
2022/08/30 00:09:19;;;;;;;;;;;16.60;99.90;;;;;;5014845;28;19928;-66
2022/08/30 00:11:46;;;;;;;;;;;16.60;99.90;;;;;;5019517;28;20264;-66
2022/08/30 00:14:12;;;;;;;;;;;16.60;99.90;;;;;;5023021;28;19921;-66
2022/08/30 00:16:39;;;;;;;;;;;16.50;99.90;;;;;;5033630;28;19925;-66
2022/08/30 00:19:06;;;;;;;;;;;16.50;99.90;;;;;;5018124;28;19922;-68
2022/08/30 00:21:35;;;;;;;;;;;16.50;99.90;;;;;;5030315;28;19925;-66
2022/08/30 00:24:03;;;;;;;;;;;16.50;99.90;;;;;;5026909;28;19928;-67
2022/08/30 00:26:30;;;;;;;;;;;16.40;99.90;;;;;;5014528;28;19921;-66
2022/08/30 00:28:57;;;;;;;;;;;16.40;99.90;;;;;;5026890;28;19925;-66
2022/08/30 00:31:24;;;;;;;;;;;16.40;99.90;;;;;;5019755;28;19922;-67
2022/08/30 00:33:51;;;;;;;;;;;16.40;99.90;;;;;;5031432;28;19921;-67
2022/08/30 00:36:18;;;;;;;;;;;16.40;99.90;;;;;;5022230;28;19933;-66
2022/08/30 00:38:44;;;;;;;;;;;16.30;99.90;;;;;;5030029;28;19928;-66
2022/08/30 00:41:11;;;;;;;;;;;16.30;99.90;;;;;;5030408;28;19928;-66
2022/08/30 00:43:38;;;;;;;;;;;16.30;99.90;;;;;;5029828;28;19925;-67
2022/08/30 00:46:07;;;;;;;;;;;16.20;99.90;;;;;;5028088;28;19921;-66
2022/08/30 00:48:35;;;;;;;;;;;16.20;99.90;;;;;;5032834;28;20020;-66
2022/08/30 00:51:04;;;;;;;;;;;16.20;99.90;;;;;;5020541;28;19925;-66
2022/08/30 00:53:33;;;;;;;;;;;16.20;99.90;;;;;;5000207;28;19921;-66
2022/08/30 00:56:00;;;;;;;;;;;16.20;99.90;;;;;;5043818;28;20305;-66
2022/08/30 00:58:28;;;;;;;;;;;16.20;99.90;;;;;;5020654;28;19921;-66
2022/08/30 01:00:56;;;;;;;;;;;16.20;99.90;;;;;;5017688;28;19921;-66
2022/08/30 01:03:23;;;;;;;;;;;16.20;99.90;;;;;;5028989;28;19928;-66
2022/08/30 01:05:50;;;;;;;;;;;16.10;99.90;;;;;;4992953;28;19926;-66
2022/08/30 01:08:19;;;;;;;;;;;16.10;99.90;;;;;;5005903;28;19921;-67
2022/08/30 01:10:46;;;;;;;;;;;16.10;99.90;;;;;;5015051;28;19921;-66
2022/08/30 01:13:12;;;;;;;;;;;16.00;99.90;;;;;;5011662;28;19921;-66
2022/08/30 01:15:40;;;;;;;;;;;16.10;99.90;;;;;;5016381;28;19979;-66
2022/08/30 01:18:07;;;;;;;;;;;16.10;99.90;;;;;;5013838;28;19964;-66
2022/08/30 01:20:37;;;;;;;;;;;16.10;99.90;;;;;;5013288;28;19921;-66
2022/08/30 01:23:05;;;;;;;;;;;16.10;99.90;;;;;;4997758;28;20419;-66
2022/08/30 01:25:32;;;;;;;;;;;16.00;99.90;;;;;;5024989;28;19935;-66
2022/08/30 01:28:06;;;;;;;;;;;16.00;99.90;;;;;;5023681;28;20384;-66
2022/08/30 01:30:33;;;;;;;;;;;16.00;99.90;;;;;;5030539;28;20273;-66
2022/08/30 01:33:00;;;;;;;;;;;16.00;99.90;;;;;;5025767;28;20003;-67
2022/08/30 01:35:27;;;;;;;;;;;15.90;99.90;;;;;;5023464;28;19920;-66
2022/08/30 01:37:55;;;;;;;;;;;15.90;99.90;;;;;;5013902;28;20277;-66
2022/08/30 01:40:22;;;;;;;;;;;15.90;99.90;;;;;;5012479;28;19987;-66
2022/08/30 01:42:49;;;;;;;;;;;15.90;99.90;;;;;;5024545;28;20373;-66
2022/08/30 01:45:15;;;;;;;;;;;15.90;99.90;;;;;;4993006;28;19922;-66
2022/08/30 01:47:42;;;;;;;;;;;15.90;99.90;;;;;;5001238;28;20015;-66
2022/08/30 01:50:09;;;;;;;;;;;15.90;99.90;;;;;;5026745;28;19936;-66
2022/08/30 01:52:36;;;;;;;;;;;15.90;99.90;;;;;;5016926;28;19929;-66
2022/08/30 01:55:03;;;;;;;;;;;15.90;99.90;;;;;;5019071;28;20373;-67
2022/08/30 01:57:30;;;;;;;;;;;15.90;99.90;;;;;;5030420;28;19921;-67
2022/08/30 01:59:57;;;;;;;;;;;15.90;99.90;;;;;;5017146;28;19925;-66
2022/08/30 02:02:24;;;;;;;;;;;15.90;99.90;;;;;;5022081;28;19921;-66
2022/08/30 02:04:52;;;;;;;;;;;15.90;99.90;;;;;;5025325;28;20292;-68
2022/08/30 02:07:19;;;;;;;;;;;15.90;99.90;;;;;;5024209;28;20377;-66
2022/08/30 02:09:46;;;;;;;;;;;15.80;99.90;;;;;;5011200;28;19928;-66
2022/08/30 02:12:13;;;;;;;;;;;15.80;99.90;;;;;;5013233;28;20419;-67
2022/08/30 02:14:39;;;;;;;;;;;15.80;99.90;;;;;;5014196;28;20365;-66
2022/08/30 02:17:07;;;;;;;;;;;15.80;99.90;;;;;;5030619;28;19928;-66
2022/08/30 02:19:34;;;;;;;;;;;15.80;99.90;;;;;;5031000;28;20287;-67
2022/08/30 02:22:01;;;;;;;;;;;15.80;99.90;;;;;;5017044;28;19931;-66
2022/08/30 02:24:27;;;;;;;;;;;15.80;99.90;;;;;;5031934;28;20403;-66
2022/08/30 02:26:54;;;;;;;;;;;15.70;99.90;;;;;;5044115;28;20399;-66
2022/08/30 02:29:21;;;;;;;;;;;15.70;99.90;;;;;;5017378;28;20262;-67
2022/08/30 02:31:48;;;;;;;;;;;15.80;99.90;;;;;;5028825;28;19921;-66
2022/08/30 02:34:15;;;;;;;;;;;15.70;99.90;;;;;;5026765;28;19921;-66
2022/08/30 02:36:42;;;;;;;;;;;15.70;99.90;;;;;;5021091;28;20032;-66
2022/08/30 02:39:09;;;;;;;;;;;15.70;99.90;;;;;;5033531;28;20436;-66
2022/08/30 02:41:37;;;;;;;;;;;15.60;99.90;;;;;;5034159;28;19921;-66
2022/08/30 02:44:04;;;;;;;;;;;15.60;99.90;;;;;;5032169;28;20372;-66
2022/08/30 02:46:31;;;;;;;;;;;15.60;99.90;;;;;;5035354;28;19925;-67
2022/08/30 02:49:00;;;;;;;;;;;15.60;99.90;;;;;;5034043;28;19929;-66
2022/08/30 02:51:47;;;;;;;;;;;15.60;99.90;;;;;;5030255;28;20377;-66
2022/08/30 02:54:18;;;;;;;;;;;15.50;99.90;;;;;;5032180;28;19940;-66
2022/08/30 02:56:46;;;;;;;;;;;15.50;99.90;;;;;;5013316;28;19921;-68
2022/08/30 02:59:13;;;;;;;;;;;15.50;99.90;;;;;;5013607;28;19928;-66
2022/08/30 03:01:40;;;;;;;;;;;15.40;99.90;;;;;;5015936;28;19949;-67
2022/08/30 03:04:08;;;;;;;;;;;15.40;99.90;;;;;;5034192;28;19955;-66
2022/08/30 03:06:34;;;;;;;;;;;15.30;99.90;;;;;;5031415;28;20372;-66
2022/08/30 03:09:01;;;;;;;;;;;15.30;99.90;;;;;;5028008;28;20443;-66
2022/08/30 03:11:28;;;;;;;;;;;15.20;99.90;;;;;;5015080;28;20008;-66
2022/08/30 03:13:55;;;;;;;;;;;15.20;99.90;;;;;;5014841;28;19997;-66
2022/08/30 03:16:22;;;;;;;;;;;15.20;99.90;;;;;;5016470;28;20262;-66
2022/08/30 03:18:49;;;;;;;;;;;15.20;99.90;;;;;;5025246;28;20344;-66
2022/08/30 03:21:16;;;;;;;;;;;15.10;99.90;;;;;;5017505;28;19928;-66
2022/08/30 03:23:43;;;;;;;;;;;15.10;99.90;;;;;;5019928;28;20285;-67
2022/08/30 03:26:11;;;;;;;;;;;15.10;99.90;;;;;;5027852;28;20302;-66
2022/08/30 03:28:39;;;;;;;;;;;15.00;99.90;;;;;;5018379;28;20396;-66
2022/08/30 03:31:06;;;;;;;;;;;15.00;99.90;;;;;;5015851;28;20380;-66
2022/08/30 03:33:32;;;;;;;;;;;15.00;99.90;;;;;;5016783;28;19921;-66
2022/08/30 03:36:00;;;;;;;;;;;15.00;99.90;;;;;;5025384;28;19924;-66
2022/08/30 03:38:27;;;;;;;;;;;15.00;99.90;;;;;;5050436;28;20395;-66
2022/08/30 03:40:54;;;;;;;;;;;14.90;99.90;;;;;;5017696;28;19925;-66
2022/08/30 03:43:22;;;;;;;;;;;14.90;99.90;;;;;;5030003;28;19936;-66
2022/08/30 03:45:49;;;;;;;;;;;14.90;99.90;;;;;;5034405;28;20257;-66
2022/08/30 03:48:16;;;;;;;;;;;14.90;99.90;;;;;;4997334;28;19921;-66
2022/08/30 03:50:43;;;;;;;;;;;14.90;99.90;;;;;;5028514;28;19977;-66
2022/08/30 03:53:10;;;;;;;;;;;14.80;99.90;;;;;;5031464;28;19924;-66
2022/08/30 03:55:36;;;;;;;;;;;14.80;99.90;;;;;;5023288;28;19921;-67
2022/08/30 03:58:03;;;;;;;;;;;14.80;99.90;;;;;;5016919;28;19932;-66
2022/08/30 04:00:30;;;;;;;;;;;14.80;99.90;;;;;;5010413;28;19921;-66
2022/08/30 04:02:57;;;;;;;;;;;14.80;99.90;;;;;;5016324;28;20000;-67
2022/08/30 04:05:24;;;;;;;;;;;14.80;99.90;;;;;;5017396;28;19928;-67
2022/08/30 04:07:51;;;;;;;;;;;14.70;99.90;;;;;;5013091;28;19925;-67
2022/08/30 04:10:20;;;;;;;;;;;14.70;99.90;;;;;;5012808;28;20383;-66
2022/08/30 04:12:47;;;;;;;;;;;14.70;99.90;;;;;;5016438;28;19927;-66
2022/08/30 04:15:16;;;;;;;;;;;14.70;99.90;;;;;;5018198;28;19940;-67
2022/08/30 04:17:43;;;;;;;;;;;14.70;99.90;;;;;;5027714;28;19921;-66
2022/08/30 04:20:10;;;;;;;;;;;14.70;99.90;;;;;;5031230;28;19921;-66
2022/08/30 04:22:37;;;;;;;;;;;14.60;99.90;;;;;;5031759;28;19927;-66
2022/08/30 04:25:04;;;;;;;;;;;14.60;99.90;;;;;;5024998;28;20023;-66
2022/08/30 04:27:31;;;;;;;;;;;14.60;99.90;;;;;;5029573;28;19932;-67
2022/08/30 04:29:58;;;;;;;;;;;14.60;99.90;;;;;;5031574;28;19936;-66
2022/08/30 04:32:25;;;;;;;;;;;14.60;99.90;;;;;;5031967;28;19924;-66
2022/08/30 04:34:55;;;;;;;;;;;14.60;99.90;;;;;;5030287;28;19925;-66
2022/08/30 04:37:22;;;;;;;;;;;14.60;99.90;;;;;;5016894;28;19921;-66
2022/08/30 04:39:49;;;;;;;;;;;14.60;99.90;;;;;;5013749;28;19921;-66
2022/08/30 04:42:17;;;;;;;;;;;14.50;99.90;;;;;;5020638;28;19925;-66
2022/08/30 04:44:44;;;;;;;;;;;14.50;99.90;;;;;;5011175;28;20015;-66
2022/08/30 04:47:11;;;;;;;;;;;14.60;99.90;;;;;;5014723;28;19925;-66
2022/08/30 04:49:37;;;;;;;;;;;14.60;99.90;;;;;;5012009;28;19922;-66
2022/08/30 04:52:07;;;;;;;;;;;14.60;99.90;;;;;;5032705;28;19921;-66
2022/08/30 04:54:34;;;;;;;;;;;14.60;99.90;;;;;;5031120;28;19932;-66
2022/08/30 04:57:01;;;;;;;;;;;14.60;99.90;;;;;;5029628;28;20360;-66
2022/08/30 04:59:27;;;;;;;;;;;14.70;99.90;;;;;;5014342;28;19922;-66
2022/08/30 05:01:54;;;;;;;;;;;14.70;99.90;;;;;;5020800;28;19927;-66
2022/08/30 05:04:21;;;;;;;;;;;14.70;99.90;;;;;;5013482;28;19975;-65
2022/08/30 05:06:48;;;;;;;;;;;14.80;99.90;;;;;;5011824;28;19937;-66
2022/08/30 05:09:15;;;;;;;;;;;14.80;99.90;;;;;;5013791;28;19928;-65
2022/08/30 05:11:42;;;;;;;;;;;14.80;99.90;;;;;;5032453;28;19921;-65
2022/08/30 05:14:09;;;;;;;;;;;14.90;99.90;;;;;;5023311;28;19922;-66
2022/08/30 05:16:35;;;;;;;;;;;15.00;99.90;;;;;;5029155;28;20384;-65
2022/08/30 05:19:02;;;;;;;;;;;15.00;99.90;;;;;;4996722;28;19921;-65
2022/08/30 05:21:29;;;;;;;;;;;15.00;99.90;;;;;;5010990;28;19921;-66
2022/08/30 05:23:56;;;;;;;;;;;15.10;99.90;;;;;;5028691;28;19928;-67
2022/08/30 05:26:27;;;;;;;;;;;15.10;99.90;;;;;;4996393;28;19921;-66
2022/08/30 05:28:54;;;;;;;;;;;15.20;99.90;;;;;;5015770;28;19932;-65
2022/08/30 05:31:23;;;;;;;;;;;15.20;99.90;;;;;;5030557;28;20399;-65
2022/08/30 05:33:50;;;;;;;;;;;15.20;99.90;;;;;;5013459;28;19929;-67
2022/08/30 05:36:17;;;;;;;;;;;15.30;99.90;;;;;;5023170;28;20012;-65
2022/08/30 05:38:44;;;;;;;;;;;15.30;99.90;;;;;;5013958;28;19922;-66
2022/08/30 05:41:11;;;;;;;;;;;15.40;99.90;;;;;;5024684;28;19927;-66
2022/08/30 05:43:38;;;;;;;;;;;15.40;99.90;;;;;;5032425;28;19921;-66
2022/08/30 05:46:05;;;;;;;;;;;15.40;99.90;;;;;;5030922;28;19921;-65
2022/08/30 05:48:32;;;;;;;;;;;15.50;99.90;;;;;;5021818;28;19925;-65
2022/08/30 05:51:00;;;;;;;;;;;15.50;99.90;;;;;;5033523;28;19925;-66
2022/08/30 05:53:27;;;;;;;;;;;15.50;99.90;;;;;;5017614;28;19920;-66
2022/08/30 05:55:54;;;;;;;;;;;15.60;99.90;;;;;;5031614;28;20313;-65
2022/08/30 05:58:20;;;;;;;;;;;15.60;99.90;;;;;;5032535;28;19925;-65
2022/08/30 06:00:47;;;;;;;;;;;15.60;99.90;;;;;;5019217;28;20364;-65
2022/08/30 06:03:14;;;;;;;;;;;15.70;99.90;;;;;;5033834;28;20315;-66
2022/08/30 06:05:41;;;;;;;;;;;15.70;99.90;;;;;;5027361;28;19921;-65
2022/08/30 06:08:08;;;;;;;;;;;15.70;99.90;;;;;;5024195;28;19983;-70
2022/08/30 06:10:35;;;;;;;;;;;15.80;99.90;;;;;;5029643;28;19921;-67
2022/08/30 06:13:02;;;;;;;;;;;15.80;99.90;;;;;;5032861;28;19928;-73
2022/08/30 06:15:28;;;;;;;;;;;15.80;99.90;;;;;;5036008;28;19921;-68
2022/08/30 06:17:55;;;;;;;;;;;15.80;99.90;;;;;;5035137;28;19921;-74
2022/08/30 06:20:22;;;;;;;;;;;15.90;99.90;;;;;;5034114;28;20327;-65
2022/08/30 06:22:49;;;;;;;;;;;15.80;99.90;;;;;;5027517;28;19960;-65
2022/08/30 06:25:16;;;;;;;;;;;15.90;99.90;;;;;;5026118;28;20281;-66
2022/08/30 06:27:43;;;;;;;;;;;15.90;99.90;;;;;;5015451;28;19928;-66
2022/08/30 06:30:09;;;;;;;;;;;15.90;99.90;;;;;;5015693;28;19932;-66
2022/08/30 06:32:37;;;;;;;;;;;16.00;99.90;;;;;;5020329;28;20365;-66
2022/08/30 06:35:04;;;;;;;;;;;16.00;99.90;;;;;;5021439;28;19921;-67
2022/08/30 06:37:31;;;;;;;;;;;16.00;99.90;;;;;;5014209;28;20266;-67
2022/08/30 06:39:59;;;;;;;;;;;16.00;99.90;;;;;;5015937;28;19922;-67
2022/08/30 06:42:30;;;;;;;;;;;16.00;99.90;;;;;;5019089;28;19925;-67
2022/08/30 06:44:59;;;;;;;;;;;16.10;99.90;;;;;;5017463;28;19928;-67
2022/08/30 06:47:26;;;;;;;;;;;16.10;99.90;;;;;;5014519;28;19921;-67
2022/08/30 06:49:53;;;;;;;;;;;16.20;99.90;;;;;;5015765;28;19931;-67
2022/08/30 06:52:20;;;;;;;;;;;16.10;99.90;;;;;;5013738;28;20399;-67
2022/08/30 06:54:47;;;;;;;;;;;16.20;99.90;;;;;;5032501;28;19928;-67
2022/08/30 06:57:16;;;;;;;;;;;16.30;99.90;;;;;;5034121;28;19924;-68
2022/08/30 06:59:43;;;;;;;;;;;16.30;99.90;;;;;;5050588;28;19925;-68
2022/08/30 07:02:10;;;;;;;;;;;16.40;99.90;;;;;;5019794;28;19921;-67
2022/08/30 07:04:37;;;;;;;;;;;16.50;99.90;;;;;;5015576;28;19921;-67
2022/08/30 07:07:04;;;;;;;;;;;16.50;99.90;;;;;;5013250;28;19921;-67
2022/08/30 07:09:31;;;;;;;;;;;16.60;99.90;;;;;;5015392;28;20645;-67
2022/08/30 07:12:03;;;;;;;;;;;16.70;99.90;;;;;;5027654;28;19921;-67
2022/08/30 07:14:29;;;;;;;;;;;16.60;99.90;;;;;;5016060;28;19925;-67
2022/08/30 07:16:56;;;;;;;;;;;16.70;99.90;;;;;;5027567;28;20349;-73
2022/08/30 07:19:24;;;;;;;;;;;16.70;99.90;;;;;;5019198;28;19968;-73
2022/08/30 07:21:51;;;;;;;;;;;16.70;99.90;;;;;;5012792;28;19925;-72
2022/08/30 07:24:18;;;;;;;;;;;16.90;99.90;;;;;;5026697;28;19921;-72
2022/08/30 07:26:47;;;;;;;;;;;16.90;99.90;;;;;;5033425;28;19927;-65
2022/08/30 07:29:14;;;;;;;;;;;16.90;99.90;;;;;;5013591;28;19929;-64
2022/08/30 07:31:41;;;;;;;;;;;17.10;99.90;;;;;;5013744;28;19932;-64
2022/08/30 07:34:08;;;;;;;;;;;17.20;99.90;;;;;;5014536;28;19921;-65
2022/08/30 07:36:36;;;;;;;;;;;17.20;99.90;;;;;;5019065;28;19921;-64
2022/08/30 07:39:03;;;;;;;;;;;17.30;99.90;;;;;;5013072;28;19922;-65
2022/08/30 07:41:30;;;;;;;;;;;17.30;99.90;;;;;;5013280;28;19921;-64
2022/08/30 07:43:57;;;;;;;;;;;17.40;99.90;;;;;;5013593;28;20300;-63
2022/08/30 07:46:24;;;;;;;;;;;17.50;99.90;;;;;;5017204;28;19921;-64
2022/08/30 07:48:53;;;;;;;;;;;17.50;99.90;;;;;;5013803;28;19925;-63
2022/08/30 07:51:20;;;;;;;;;;;17.50;99.90;;;;;;5012884;28;20011;-64
2022/08/30 07:53:47;;;;;;;;;;;17.50;99.90;;;;;;5023616;28;19921;-64
2022/08/30 07:56:14;;;;;;;;;;;17.60;99.90;;;;;;5049327;28;19928;-64
2022/08/30 07:58:41;;;;;;;;;;;17.50;99.90;;;;;;5013643;28;19956;-64
2022/08/30 08:01:08;;;;;;;;;;;17.60;99.90;;;;;;5029174;28;19921;-63
2022/08/30 08:03:35;;;;;;;;;;;17.70;99.90;;;;;;5030606;28;19922;-64
2022/08/30 08:06:02;;;;;;;;;;;17.80;99.90;;;;;;5017861;28;19921;-67
2022/08/30 08:08:29;;;;;;;;;;;17.90;99.90;;;;;;5014032;28;19921;-65
2022/08/30 08:10:56;;;;;;;;;;;18.00;99.90;;;;;;5012033;28;19921;-65
2022/08/30 08:13:23;;;;;;;;;;;18.10;99.90;;;;;;5014528;28;19929;-65
2022/08/30 08:15:54;;;;;;;;;;;18.20;99.90;;;;;;5010720;28;19929;-64
2022/08/30 08:18:21;;;;;;;;;;;18.30;99.90;;;;;;5014184;28;20036;-64
2022/08/30 08:20:47;;;;;;;;;;;18.40;99.90;;;;;;5009211;28;19921;-64
2022/08/30 08:23:15;;;;;;;;;;;18.50;99.90;;;;;;5020738;28;20011;-63
2022/08/30 08:25:42;;;;;;;;;;;18.50;99.90;;;;;;5033718;28;19925;-64
2022/08/30 08:28:09;;;;;;;;;;;18.50;99.90;;;;;;5038302;28;19925;-64
2022/08/30 08:30:36;;;;;;;;;;;18.60;99.90;;;;;;4996235;28;20379;-63
2022/08/30 08:33:03;;;;;;;;;;;18.80;99.90;;;;;;5021040;28;20253;-64
2022/08/30 08:35:31;;;;;;;;;;;18.80;99.90;;;;;;5019150;28;20024;-63
2022/08/30 08:37:58;;;;;;;;;;;18.90;99.90;;;;;;5031167;28;20369;-63
2022/08/30 08:40:25;;;;;;;;;;;19.00;99.90;;;;;;5002639;28;19921;-63
2022/08/30 08:42:55;;;;;;;;;;;19.00;99.90;;;;;;5015706;28;20002;-67
2022/08/30 08:45:24;;;;;;;;;;;19.10;99.90;;;;;;5031439;28;19925;-69
2022/08/30 08:48:02;;;;;;;;;;;19.10;99.90;;;;;;4993747;28;19926;-67
2022/08/30 08:53:33;;;;;;;;;;;19.20;99.90;;;;;;4994444;28;20269;-67
2022/08/30 08:53:35;;;;;;;;;;;19.10;99.90;;;;;;5007422;28;19932;-66
2022/08/30 08:56:17;;;;;;;;;;;19.10;99.90;;;;;;5032970;28;19927;-68
2022/08/30 08:58:48;;;;;;;;;;;19.20;99.90;;;;;;5048431;28;19921;-68
2022/08/30 09:01:16;;;;;;;;;;;19.20;99.90;;;;;;5032844;28;19921;-68
2022/08/30 09:03:43;;;;;;;;;;;19.20;99.90;;;;;;5048187;28;19971;-68
2022/08/30 09:06:20;;;;;;;;;;;19.30;99.90;;;;;;5032336;28;19921;-67
2022/08/30 09:08:47;;;;;;;;;;;19.30;99.90;;;;;;5031443;28;19925;-68
2022/08/30 09:11:20;;;;;;;;;;;19.30;99.90;;;;;;5031219;28;19921;-67
2022/08/30 09:13:53;;;;;;;;;;;19.40;99.90;;;;;;5029819;28;19929;-68
2022/08/30 09:16:38;;;;;;;;;;;19.50;99.90;;;;;;5009118;28;19922;-68
2022/08/30 09:19:05;;;;;;;;;;;19.60;99.90;;;;;;4993328;28;19921;-67
2022/08/30 09:21:33;;;;;;;;;;;19.80;99.90;;;;;;4992561;28;19980;-68
2022/08/30 09:24:00;;;;;;;;;;;19.80;99.90;;;;;;5020023;28;19935;-68
2022/08/30 09:26:33;;;;;;;;;;;19.90;99.90;;;;;;5047433;28;19921;-67
2022/08/30 09:29:01;;;;;;;;;;;20.00;99.90;;;;;;5031759;28;19921;-68
2022/08/30 09:31:31;;;;;;;;;;;20.10;99.90;;;;;;5031305;28;20145;-66
2022/08/30 09:34:17;;;;;;;;;;;20.20;99.90;;;;;;5032283;28;19951;-68
2022/08/30 09:36:45;;;;;;;;;;;20.30;99.90;;;;;;5031550;28;19924;-68
2022/08/30 09:39:32;;;;;;;;;;;20.40;99.90;;;;;;5031984;28;19929;-67
2022/08/30 09:42:13;;;;;;;;;;;20.60;99.90;;;;;;5064095;28;19965;-68
2022/08/30 09:44:40;;;;;;;;;;;20.70;99.90;;;;;;5064239;28;20019;-67
2022/08/30 09:47:06;;;;;;;;;;;20.70;99.90;;;;;;5031381;28;20383;-68
2022/08/30 09:49:35;;;;;;;;;;;20.60;99.90;;;;;;5064319;28;19925;-67
2022/08/30 09:52:15;;;;;;;;;;;20.60;99.90;;;;;;5063436;28;20292;-68
2022/08/30 09:54:45;;;;;;;;;;;20.80;99.90;;;;;;5030314;28;20016;-67
2022/08/30 09:57:21;;;;;;;;;;;20.80;99.90;;;;;;5032263;28;19927;-68
2022/08/30 10:00:20;;;;;;;;;;;20.90;99.90;;;;;;5046235;28;19921;-68
2022/08/30 10:02:50;;;;;;;;;;;21.00;99.90;;;;;;5032539;28;19920;-68
2022/08/30 10:05:41;;;;;;;;;;;21.00;99.90;;;;;;5032267;28;19921;-67
2022/08/30 10:08:08;;;;;;;;;;;21.20;99.90;;;;;;5037869;28;19921;-68
2022/08/30 10:10:47;;;;;;;;;;;21.40;99.90;;;;;;5012255;28;19927;-68
2022/08/30 10:13:27;;;;;;;;;;;21.30;99.90;;;;;;5011714;28;19921;-68
2022/08/30 10:16:00;;;;;;;;;;;21.30;99.90;;;;;;5027131;28;20012;-67
2022/08/30 10:18:46;;;;;;;;;;;21.30;99.90;;;;;;5028039;28;19921;-67
2022/08/30 10:21:17;;;;;;;;;;;21.30;99.90;;;;;;5012232;28;19921;-68
2022/08/30 10:23:46;;;;;;;;;;;21.30;99.90;;;;;;5021290;28;19955;-68
2022/08/30 10:26:33;;;;;;;;;;;21.40;99.90;;;;;;5047304;28;20386;-67
2022/08/30 10:29:09;;;;;;;;;;;21.30;99.90;;;;;;5032409;28;19921;-68
2022/08/30 10:31:40;;;;;;;;;;;21.10;99.90;;;;;;5031828;28;19928;-68
2022/08/30 10:34:09;;;;;;;;;;;21.10;99.90;;;;;;5047274;28;20331;-67
2022/08/30 10:36:41;;;;;;;;;;;21.20;99.90;;;;;;5033864;28;19921;-67
2022/08/30 10:39:11;;;;;;;;;;;21.40;99.90;;;;;;5034101;28;19921;-67
2022/08/30 10:41:42;;;;;;;;;;;21.40;99.90;;;;;;5067374;28;19921;-68
2022/08/30 10:44:12;;;;;;;;;;;21.40;99.90;;;;;;5067407;28;19967;-67
2022/08/30 10:46:44;;;;;;;;;;;21.40;99.90;;;;;;5033786;28;20451;-67
2022/08/30 10:49:13;;;;;;;;;;;21.50;99.90;;;;;;5065500;28;19937;-66
2022/08/30 10:51:51;;;;;;;;;;;21.50;99.90;;;;;;5046608;28;19925;-67
2022/08/30 10:54:33;;;;;;;;;;;21.60;99.90;;;;;;5024151;28;19927;-66
2022/08/30 10:57:00;;;;;;;;;;;21.70;99.90;;;;;;5032472;28;19950;-79
2022/08/30 10:59:27;;;;;;;;;;;21.70;99.90;;;;;;5025525;28;19997;-70
2022/08/30 11:01:54;;;;;;;;;;;21.70;99.90;;;;;;5030776;28;19932;-68
2022/08/30 11:04:38;;;;;;;;;;;21.70;99.90;;;;;;5017389;28;19921;-71
2022/08/30 11:07:17;;;;;;;;;;;21.60;99.90;;;;;;4999927;28;20338;-67
2022/08/30 11:09:49;;;;;;;;;;;21.60;99.90;;;;;;5033910;28;19927;-72
2022/08/30 11:12:32;;;;;;;;;;;21.70;99.90;;;;;;5024187;28;19943;-69
2022/08/30 11:14:59;;;;;;;;;;;21.80;99.90;;;;;;5030655;28;19948;-77
2022/08/30 11:17:49;;;;;;;;;;;21.80;99.90;;;;;;5019306;28;19944;-78
2022/08/30 11:20:29;;;;;;;;;;;21.90;99.90;;;;;;5019272;28;19922;-76
2022/08/30 11:23:09;;;;;;;;;;;22.00;99.90;;;;;;5016182;28;20017;-71
2022/08/30 11:25:46;;;;;;;;;;;22.00;99.90;;;;;;5032131;28;20387;-70
2022/08/30 11:28:37;;;;;;;;;;;22.10;99.90;;;;;;5038901;28;19960;-70
2022/08/30 11:31:04;;;;;;;;;;;22.30;99.90;;;;;;5014764;28;19929;-69
2022/08/30 11:33:43;;;;;;;;;;;22.50;99.90;;;;;;5014694;28;20391;-69
2022/08/30 11:36:34;;;;;;;;;;;22.60;99.90;;;;;;5009565;28;20404;-69
2022/08/30 11:39:06;;;;;;;;;;;22.60;99.90;;;;;;4995554;28;19932;-68
2022/08/30 11:41:43;;;;;;;;;;;22.70;99.90;;;;;;5010524;28;20296;-69
2022/08/30 11:44:20;;;;;;;;;;;22.80;99.90;;;;;;5043403;28;20385;-70
2022/08/30 11:46:48;;;;;;;;;;;22.80;99.90;;;;;;5013508;28;19925;-70
2022/08/30 11:49:18;;;;;;;;;;;23.00;99.90;;;;;;5016756;28;19933;-72
2022/08/30 11:52:10;;;;;;;;;;;23.30;99.90;;;;;;5014778;28;19944;-69
2022/08/30 11:54:57;;;;;;;;;;;23.30;99.90;;;;;;5011413;28;19925;-73
2022/08/30 11:57:41;;;;;;;;;;;23.40;99.90;;;;;;5009176;28;20381;-74
2022/08/30 12:00:09;;;;;;;;;;;23.60;99.90;;;;;;5020588;28;20383;-71
2022/08/30 12:02:46;;;;;;;;;;;23.60;99.90;;;;;;5008060;28;20447;-71
2022/08/30 12:05:45;;;;;;;;;;;23.40;99.90;;;;;;5016727;28;20438;-71
2022/08/30 12:08:20;;;;;;;;;;;23.10;99.90;;;;;;5027244;28;19928;-69
2022/08/30 12:11:07;;;;;;;;;;;22.90;99.90;;;;;;5014019;28;20016;-71
2022/08/30 12:13:41;;;;;;;;;;;22.80;99.90;;;;;;5010051;28;19921;-69
2022/08/30 12:16:10;;;;;;;;;;;22.80;99.90;;;;;;5024510;28;19925;-70
2022/08/30 12:18:37;;;;;;;;;;;22.80;99.90;;;;;;5054705;28;20012;-70
2022/08/30 12:21:26;;;;;;;;;;;22.70;99.90;;;;;;5040791;28;20500;-73
2022/08/30 12:24:02;;;;;;;;;;;22.70;99.90;;;;;;5021904;28;20398;-69
2022/08/30 12:26:31;;;;;;;;;;;22.80;99.90;;;;;;5045703;28;19921;-69
2022/08/30 12:29:06;;;;;;;;;;;22.90;99.90;;;;;;5010132;28;19968;-66
2022/08/30 12:31:38;;;;;;;;;;;23.00;99.90;;;;;;5009577;28;19984;-69
2022/08/30 12:34:06;;;;;;;;;;;23.00;99.90;;;;;;5024862;28;19920;-70
2022/08/30 12:36:38;;;;;;;;;;;22.90;99.90;;;;;;5030464;28;19927;-70
2022/08/30 12:39:06;;;;;;;;;;;22.90;99.90;;;;;;5027194;28;19936;-68
2022/08/30 12:41:33;;;;;;;;;;;22.90;99.90;;;;;;5017982;28;19921;-67
2022/08/30 12:44:11;;;;;;;;;;;22.90;99.90;;;;;;5013181;28;19921;-67
2022/08/30 12:46:39;;;;;;;;;;;22.90;99.90;;;;;;5009326;28;19971;-67
2022/08/30 12:49:06;;;;;;;;;;;22.90;99.90;;;;;;5010003;28;19925;-68
2022/08/30 12:51:35;;;;;;;;;;;23.00;99.90;;;;;;5009212;28;19921;-68
2022/08/30 12:54:04;;;;;;;;;;;22.90;99.90;;;;;;5018897;28;20295;-78
2022/08/30 12:56:47;;;;;;;;;;;22.80;99.90;;;;;;5021088;28;19925;-69
2022/08/30 12:59:35;;;;;;;;;;;22.80;99.90;;;;;;4990744;28;20024;-70
2022/08/30 13:02:21;;;;;;;;;;;22.80;99.90;;;;;;5002235;28;19961;-62
2022/08/30 13:04:48;;;;;;;;;;;22.70;99.90;;;;;;5024058;28;19921;-70
2022/08/30 13:07:24;;;;;;;;;;;22.70;99.90;;;;;;5030231;28;19943;-70
2022/08/30 13:09:57;;;;;;;;;;;22.70;99.90;;;;;;5028855;28;19925;-74
2022/08/30 13:12:25;;;;;;;;;;;22.70;99.90;;;;;;5014029;28;20255;-69
2022/08/30 13:14:52;;;;;;;;;;;22.70;99.90;;;;;;5002784;28;19974;-68
2022/08/30 13:17:21;;;;;;;;;;;22.70;99.90;;;;;;5012794;28;19921;-68
2022/08/30 13:19:58;;;;;;;;;;;22.70;99.90;;;;;;5016589;28;19921;-67
2022/08/30 13:22:31;;;;;;;;;;;22.80;99.90;;;;;;5015085;28;19931;-70
2022/08/30 13:24:58;;;;;;;;;;;22.80;99.90;;;;;;5012816;28;20325;-68
2022/08/30 13:27:25;;;;;;;;;;;22.90;99.90;;;;;;4993088;28;20016;-66
2022/08/30 13:29:52;;;;;;;;;;;23.00;99.90;;;;;;5010605;28;19925;-66
2022/08/30 13:32:19;;;;;;;;;;;23.10;99.90;;;;;;5009228;28;19931;-67
2022/08/30 13:34:45;;;;;;;;;;;23.10;99.90;;;;;;5011009;28;19937;-71
2022/08/30 13:37:14;;;;;;;;;;;23.10;99.90;;;;;;5028174;28;20015;-66
2022/08/30 13:40:01;;;;;;;;;;;23.20;99.90;;;;;;5012744;28;19922;-66
2022/08/30 13:42:30;;;;;;;;;;;23.30;99.90;;;;;;5011628;28;20004;-66
2022/08/30 13:44:58;;;;;;;;;;;23.30;99.40;;;;;;5012467;28;19928;-64
2022/08/30 13:47:25;;;;;;;;;;;23.30;99.30;;;;;;5012911;28;19928;-66
2022/08/30 13:50:00;;;;;;;;;;;23.10;99.10;;;;;;5011906;28;19921;-67
2022/08/30 13:52:27;;;;;;;;;;;23.00;99.90;;;;;;5010696;28;19921;-66
2022/08/30 13:54:54;;;;;;;;;;;23.00;99.90;;;;;;5025133;28;19931;-67
2022/08/30 13:57:25;;;;;;;;;;;23.00;99.90;;;;;;5014822;28;19922;-65
2022/08/30 14:00:16;;;;;;;;;;;22.90;99.90;;;;;;5011369;28;19926;-66
2022/08/30 14:02:43;;;;;;;;;;;22.80;99.90;;;;;;5012471;28;19929;-65
2022/08/30 14:05:20;;;;;;;;;;;22.80;99.90;;;;;;5011608;28;19921;-65
2022/08/30 14:08:07;;;;;;;;;;;22.90;99.90;;;;;;5010841;28;19921;-67
2022/08/30 14:10:54;;;;;;;;;;;22.90;99.90;;;;;;5016305;28;19929;-65
2022/08/30 14:13:21;;;;;;;;;;;23.00;99.90;;;;;;5036336;28;19964;-66
2022/08/30 14:15:50;;;;;;;;;;;23.10;99.90;;;;;;5016161;28;19922;-65
2022/08/30 14:18:37;;;;;;;;;;;23.00;99.90;;;;;;5016316;28;19971;-66
2022/08/30 14:21:04;;;;;;;;;;;23.20;99.90;;;;;;5019861;28;19925;-74
2022/08/30 14:23:31;;;;;;;;;;;23.20;99.90;;;;;;5021075;28;19928;-69
2022/08/30 14:26:01;;;;;;;;;;;23.30;99.90;;;;;;5022977;28;19929;-71
2022/08/30 14:28:29;;;;;;;;;;;23.50;99.90;;;;;;5024289;28;19939;-73
2022/08/30 14:30:56;;;;;;;;;;;23.40;99.90;;;;;;5019563;28;19928;-71